sensor_id;sensor_type;location;lat;lon;timestamp;temperature;humidity
14049;DHT22;7099;53.922;10.728;2023-11-21T00:02:41;8.50;99.90
14049;DHT22;7099;53.922;10.728;2023-11-21T00:06:51;8.40;99.90
14049;DHT22;7099;53.922;10.728;2023-11-21T00:10:56;8.40;99.90
14049;DHT22;7099;53.922;10.728;2023-11-21T00:15:03;8.40;99.90
14049;DHT22;7099;53.922;10.728;2023-11-21T00:19:16;8.30;99.90
14049;DHT22;7099;53.922;10.728;2023-11-21T00:23:21;8.30;99.90
14049;DHT22;7099;53.922;10.728;2023-11-21T00:27:27;8.30;99.90
14049;DHT22;7099;53.922;10.728;2023-11-21T00:31:33;8.50;99.90
14049;DHT22;7099;53.922;10.728;2023-11-21T00:35:38;8.50;99.90
14049;DHT22;7099;53.922;10.728;2023-11-21T00:39:44;8.40;99.90
14049;DHT22;7099;53.922;10.728;2023-11-21T00:43:49;8.30;99.90
14049;DHT22;7099;53.922;10.728;2023-11-21T00:47:55;8.30;99.90
14049;DHT22;7099;53.922;10.728;2023-11-21T00:52:03;8.20;99.90
14049;DHT22;7099;53.922;10.728;2023-11-21T00:56:09;8.20;99.90
14049;DHT22;7099;53.922;10.728;2023-11-21T01:00:15;8.20;99.90
14049;DHT22;7099;53.922;10.728;2023-11-21T01:04:22;8.20;99.90
14049;DHT22;7099;53.922;10.728;2023-11-21T01:08:28;8.20;99.90
14049;DHT22;7099;53.922;10.728;2023-11-21T01:12:35;8.10;99.90
14049;DHT22;7099;53.922;10.728;2023-11-21T01:16:42;8.20;99.90
14049;DHT22;7099;53.922;10.728;2023-11-21T01:20:48;8.10;99.90
14049;DHT22;7099;53.922;10.728;2023-11-21T01:24:53;8.10;99.90
14049;DHT22;7099;53.922;10.728;2023-11-21T01:28:59;8.10;99.90
14049;DHT22;7099;53.922;10.728;2023-11-21T01:33:05;8.10;99.90
14049;DHT22;7099;53.922;10.728;2023-11-21T01:37:10;8.10;99.90
14049;DHT22;7099;53.922;10.728;2023-11-21T01:41:17;8.00;99.90
14049;DHT22;7099;53.922;10.728;2023-11-21T01:45:23;8.00;99.90
14049;DHT22;7099;53.922;10.728;2023-11-21T01:49:30;8.00;99.90
14049;DHT22;7099;53.922;10.728;2023-11-21T01:53:39;8.00;99.90
14049;DHT22;7099;53.922;10.728;2023-11-21T01:57:46;8.00;99.90
14049;DHT22;7099;53.922;10.728;2023-11-21T02:01:51;8.00;99.90
14049;DHT22;7099;53.922;10.728;2023-11-21T02:05:57;7.90;99.90
14049;DHT22;7099;53.922;10.728;2023-11-21T02:10:04;7.90;99.90
14049;DHT22;7099;53.922;10.728;2023-11-21T02:14:10;7.90;99.90
14049;DHT22;7099;53.922;10.728;2023-11-21T02:18:16;7.90;99.90
14049;DHT22;7099;53.922;10.728;2023-11-21T02:22:23;7.90;99.90
14049;DHT22;7099;53.922;10.728;2023-11-21T02:26:35;7.90;99.90
14049;DHT22;7099;53.922;10.728;2023-11-21T02:30:41;7.90;99.90
14049;DHT22;7099;53.922;10.728;2023-11-21T02:34:49;7.90;99.90
14049;DHT22;7099;53.922;10.728;2023-11-21T02:38:55;7.90;99.90
14049;DHT22;7099;53.922;10.728;2023-11-21T02:43:00;7.90;99.90
14049;DHT22;7099;53.922;10.728;2023-11-21T02:47:06;7.90;99.90
14049;DHT22;7099;53.922;10.728;2023-11-21T02:51:12;7.90;99.90
14049;DHT22;7099;53.922;10.728;2023-11-21T02:55:17;7.90;99.90
14049;DHT22;7099;53.922;10.728;2023-11-21T02:59:23;7.90;99.90
14049;DHT22;7099;53.922;10.728;2023-11-21T03:03:28;7.90;99.90
14049;DHT22;7099;53.922;10.728;2023-11-21T03:07:35;7.90;99.90
14049;DHT22;7099;53.922;10.728;2023-11-21T03:11:42;7.90;99.90
14049;DHT22;7099;53.922;10.728;2023-11-21T03:15:47;7.90;99.90
14049;DHT22;7099;53.922;10.728;2023-11-21T03:19:53;7.90;99.90
14049;DHT22;7099;53.922;10.728;2023-11-21T03:23:59;7.90;99.90
14049;DHT22;7099;53.922;10.728;2023-11-21T03:28:05;7.90;99.90
14049;DHT22;7099;53.922;10.728;2023-11-21T03:32:11;7.90;99.90
14049;DHT22;7099;53.922;10.728;2023-11-21T03:36:17;7.90;99.90
14049;DHT22;7099;53.922;10.728;2023-11-21T03:40:23;7.90;99.90
14049;DHT22;7099;53.922;10.728;2023-11-21T03:44:28;7.90;99.90
14049;DHT22;7099;53.922;10.728;2023-11-21T03:48:34;7.90;99.90
14049;DHT22;7099;53.922;10.728;2023-11-21T03:52:40;7.80;99.90
14049;DHT22;7099;53.922;10.728;2023-11-21T03:56:46;7.80;99.90
14049;DHT22;7099;53.922;10.728;2023-11-21T04:00:52;7.80;99.90
14049;DHT22;7099;53.922;10.728;2023-11-21T04:04:57;7.80;99.90
14049;DHT22;7099;53.922;10.728;2023-11-21T04:09:03;7.90;99.90
14049;DHT22;7099;53.922;10.728;2023-11-21T04:13:09;7.80;99.90
14049;DHT22;7099;53.922;10.728;2023-11-21T04:17:17;7.80;99.90
14049;DHT22;7099;53.922;10.728;2023-11-21T04:21:23;7.80;99.90
14049;DHT22;7099;53.922;10.728;2023-11-21T04:25:29;7.80;99.90
14049;DHT22;7099;53.922;10.728;2023-11-21T04:29:34;7.70;99.90
14049;DHT22;7099;53.922;10.728;2023-11-21T04:33:40;7.70;99.90
14049;DHT22;7099;53.922;10.728;2023-11-21T04:37:45;7.70;99.90
14049;DHT22;7099;53.922;10.728;2023-11-21T04:41:51;7.70;99.90
14049;DHT22;7099;53.922;10.728;2023-11-21T04:45:57;7.70;99.90
14049;DHT22;7099;53.922;10.728;2023-11-21T04:50:03;7.70;99.90
14049;DHT22;7099;53.922;10.728;2023-11-21T04:54:09;7.80;99.90
14049;DHT22;7099;53.922;10.728;2023-11-21T04:58:15;7.70;99.90
14049;DHT22;7099;53.922;10.728;2023-11-21T05:02:21;7.70;99.90
14049;DHT22;7099;53.922;10.728;2023-11-21T05:06:39;7.70;99.90
14049;DHT22;7099;53.922;10.728;2023-11-21T05:10:45;7.70;99.90
14049;DHT22;7099;53.922;10.728;2023-11-21T05:14:51;7.80;99.90
14049;DHT22;7099;53.922;10.728;2023-11-21T05:18:56;7.70;99.90
14049;DHT22;7099;53.922;10.728;2023-11-21T05:23:05;7.70;99.90
14049;DHT22;7099;53.922;10.728;2023-11-21T05:27:11;7.70;99.90
14049;DHT22;7099;53.922;10.728;2023-11-21T05:31:17;7.70;99.90
14049;DHT22;7099;53.922;10.728;2023-11-21T05:35:22;7.70;99.70
14049;DHT22;7099;53.922;10.728;2023-11-21T05:39:28;7.70;99.70
14049;DHT22;7099;53.922;10.728;2023-11-21T05:43:33;7.70;99.90
14049;DHT22;7099;53.922;10.728;2023-11-21T05:47:45;7.70;99.70
14049;DHT22;7099;53.922;10.728;2023-11-21T05:51:54;7.70;99.90
14049;DHT22;7099;53.922;10.728;2023-11-21T05:56:00;7.70;99.90
14049;DHT22;7099;53.922;10.728;2023-11-21T06:00:15;8.00;99.00
14049;DHT22;7099;53.922;10.728;2023-11-21T06:04:26;7.90;99.30
14049;DHT22;7099;53.922;10.728;2023-11-21T06:08:32;7.80;99.50
14049;DHT22;7099;53.922;10.728;2023-11-21T06:12:38;7.80;99.60
14049;DHT22;7099;53.922;10.728;2023-11-21T06:16:45;7.80;99.60
14049;DHT22;7099;53.922;10.728;2023-11-21T06:20:51;7.70;99.60
14049;DHT22;7099;53.922;10.728;2023-11-21T06:24:58;7.70;99.70
14049;DHT22;7099;53.922;10.728;2023-11-21T06:29:03;7.70;99.80
14049;DHT22;7099;53.922;10.728;2023-11-21T06:33:09;7.70;99.80
14049;DHT22;7099;53.922;10.728;2023-11-21T06:37:15;7.70;99.90
14049;DHT22;7099;53.922;10.728;2023-11-21T06:41:22;7.60;99.90
14049;DHT22;7099;53.922;10.728;2023-11-21T06:45:27;7.60;99.90
14049;DHT22;7099;53.922;10.728;2023-11-21T06:49:33;7.60;99.90
14049;DHT22;7099;53.922;10.728;2023-11-21T06:53:39;7.60;99.90
14049;DHT22;7099;53.922;10.728;2023-11-21T06:57:45;7.60;99.90
14049;DHT22;7099;53.922;10.728;2023-11-21T07:01:52;7.60;99.90
14049;DHT22;7099;53.922;10.728;2023-11-21T07:05:58;7.70;99.90
14049;DHT22;7099;53.922;10.728;2023-11-21T07:10:04;7.70;99.90
14049;DHT22;7099;53.922;10.728;2023-11-21T07:14:11;7.70;99.90
14049;DHT22;7099;53.922;10.728;2023-11-21T07:18:17;7.70;99.90
14049;DHT22;7099;53.922;10.728;2023-11-21T07:22:22;7.70;99.90
14049;DHT22;7099;53.922;10.728;2023-11-21T07:26:29;7.70;99.90
14049;DHT22;7099;53.922;10.728;2023-11-21T07:30:35;7.70;99.90
14049;DHT22;7099;53.922;10.728;2023-11-21T07:34:41;7.70;99.90
14049;DHT22;7099;53.922;10.728;2023-11-21T07:38:47;7.70;99.90
14049;DHT22;7099;53.922;10.728;2023-11-21T07:42:53;7.70;99.90
14049;DHT22;7099;53.922;10.728;2023-11-21T07:46:59;7.70;99.90
14049;DHT22;7099;53.922;10.728;2023-11-21T07:51:05;7.70;99.90
14049;DHT22;7099;53.922;10.728;2023-11-21T07:55:14;7.70;99.90
14049;DHT22;7099;53.922;10.728;2023-11-21T07:59:19;7.70;99.90
14049;DHT22;7099;53.922;10.728;2023-11-21T08:03:25;7.60;99.90
14049;DHT22;7099;53.922;10.728;2023-11-21T08:07:32;7.70;99.90
14049;DHT22;7099;53.922;10.728;2023-11-21T08:11:38;7.60;99.90
14049;DHT22;7099;53.922;10.728;2023-11-21T08:15:44;7.60;99.90
14049;DHT22;7099;53.922;10.728;2023-11-21T08:19:52;7.60;99.90
14049;DHT22;7099;53.922;10.728;2023-11-21T08:23:58;7.60;99.90
14049;DHT22;7099;53.922;10.728;2023-11-21T08:28:03;7.60;99.90
14049;DHT22;7099;53.922;10.728;2023-11-21T08:32:10;7.60;99.90
14049;DHT22;7099;53.922;10.728;2023-11-21T08:36:16;7.60;99.90
14049;DHT22;7099;53.922;10.728;2023-11-21T08:40:21;7.60;99.90
14049;DHT22;7099;53.922;10.728;2023-11-21T08:44:27;7.60;99.90
14049;DHT22;7099;53.922;10.728;2023-11-21T08:48:32;7.50;99.90
14049;DHT22;7099;53.922;10.728;2023-11-21T08:52:41;7.50;99.90
14049;DHT22;7099;53.922;10.728;2023-11-21T08:56:47;7.50;99.90
14049;DHT22;7099;53.922;10.728;2023-11-21T09:00:53;7.50;99.90
14049;DHT22;7099;53.922;10.728;2023-11-21T09:04:58;7.50;99.90
14049;DHT22;7099;53.922;10.728;2023-11-21T09:09:04;7.50;99.90
14049;DHT22;7099;53.922;10.728;2023-11-21T09:13:11;7.50;99.90
14049;DHT22;7099;53.922;10.728;2023-11-21T09:17:17;7.50;99.90
14049;DHT22;7099;53.922;10.728;2023-11-21T09:21:24;7.40;99.90
14049;DHT22;7099;53.922;10.728;2023-11-21T09:25:30;7.40;99.90
14049;DHT22;7099;53.922;10.728;2023-11-21T09:29:36;7.40;99.90
14049;DHT22;7099;53.922;10.728;2023-11-21T09:33:43;7.40;99.90
14049;DHT22;7099;53.922;10.728;2023-11-21T09:37:49;7.40;99.90
14049;DHT22;7099;53.922;10.728;2023-11-21T09:46:28;7.40;99.90
14049;DHT22;7099;53.922;10.728;2023-11-21T09:50:36;7.40;99.90
14049;DHT22;7099;53.922;10.728;2023-11-21T09:54:42;7.50;99.90
14049;DHT22;7099;53.922;10.728;2023-11-21T09:58:51;7.50;99.90
14049;DHT22;7099;53.922;10.728;2023-11-21T10:02:58;7.50;99.90
14049;DHT22;7099;53.922;10.728;2023-11-21T10:07:05;7.50;99.90
14049;DHT22;7099;53.922;10.728;2023-11-21T10:11:14;7.50;99.90
14049;DHT22;7099;53.922;10.728;2023-11-21T10:15:22;7.50;99.90
14049;DHT22;7099;53.922;10.728;2023-11-21T10:19:28;7.50;99.90
14049;DHT22;7099;53.922;10.728;2023-11-21T10:23:34;7.50;99.90
14049;DHT22;7099;53.922;10.728;2023-11-21T10:27:41;7.50;99.90
14049;DHT22;7099;53.922;10.728;2023-11-21T10:31:50;7.50;99.90
14049;DHT22;7099;53.922;10.728;2023-11-21T10:35:56;7.50;99.90
14049;DHT22;7099;53.922;10.728;2023-11-21T10:40:02;7.50;99.90
14049;DHT22;7099;53.922;10.728;2023-11-21T10:44:08;7.60;99.90
14049;DHT22;7099;53.922;10.728;2023-11-21T10:48:16;7.70;99.90
14049;DHT22;7099;53.922;10.728;2023-11-21T10:52:26;7.70;99.90
14049;DHT22;7099;53.922;10.728;2023-11-21T10:56:32;7.80;99.90
14049;DHT22;7099;53.922;10.728;2023-11-21T11:00:40;7.70;99.90
14049;DHT22;7099;53.922;10.728;2023-11-21T11:04:48;7.70;99.90
14049;DHT22;7099;53.922;10.728;2023-11-21T11:08:54;7.80;99.90
14049;DHT22;7099;53.922;10.728;2023-11-21T11:12:59;7.80;99.90
14049;DHT22;7099;53.922;10.728;2023-11-21T11:17:07;7.70;99.90
14049;DHT22;7099;53.922;10.728;2023-11-21T11:30:15;7.70;99.90
14049;DHT22;7099;53.922;10.728;2023-11-21T11:34:53;7.70;99.90
14049;DHT22;7099;53.922;10.728;2023-11-21T11:39:27;7.60;99.90
14049;DHT22;7099;53.922;10.728;2023-11-21T11:43:36;7.60;99.90
14049;DHT22;7099;53.922;10.728;2023-11-21T11:47:56;7.50;99.90
14049;DHT22;7099;53.922;10.728;2023-11-21T11:56:39;7.50;99.90
14049;DHT22;7099;53.922;10.728;2023-11-21T12:00:45;7.50;99.90
14049;DHT22;7099;53.922;10.728;2023-11-21T12:04:56;7.50;99.90
14049;DHT22;7099;53.922;10.728;2023-11-21T12:09:03;7.60;99.90
14049;DHT22;7099;53.922;10.728;2023-11-21T12:13:11;7.60;99.90
14049;DHT22;7099;53.922;10.728;2023-11-21T12:17:19;7.60;99.90
14049;DHT22;7099;53.922;10.728;2023-11-21T12:21:25;7.60;99.90
14049;DHT22;7099;53.922;10.728;2023-11-21T12:25:31;7.60;99.90
14049;DHT22;7099;53.922;10.728;2023-11-21T12:29:38;7.60;99.90
14049;DHT22;7099;53.922;10.728;2023-11-21T12:33:45;7.50;99.90
14049;DHT22;7099;53.922;10.728;2023-11-21T12:37:52;7.50;99.90
14049;DHT22;7099;53.922;10.728;2023-11-21T12:41:59;7.50;99.90
14049;DHT22;7099;53.922;10.728;2023-11-21T12:46:09;7.40;99.90
14049;DHT22;7099;53.922;10.728;2023-11-21T12:50:22;7.40;99.90
14049;DHT22;7099;53.922;10.728;2023-11-21T12:54:34;7.30;99.90
14049;DHT22;7099;53.922;10.728;2023-11-21T12:58:44;7.20;99.90
14049;DHT22;7099;53.922;10.728;2023-11-21T13:02:56;7.20;99.90
14049;DHT22;7099;53.922;10.728;2023-11-21T13:07:05;7.20;99.90
14049;DHT22;7099;53.922;10.728;2023-11-21T13:11:19;7.30;99.90
14049;DHT22;7099;53.922;10.728;2023-11-21T13:15:27;7.20;99.90
14049;DHT22;7099;53.922;10.728;2023-11-21T13:19:32;7.20;99.90
14049;DHT22;7099;53.922;10.728;2023-11-21T13:23:38;7.20;99.90
14049;DHT22;7099;53.922;10.728;2023-11-21T13:27:44;7.10;99.90
14049;DHT22;7099;53.922;10.728;2023-11-21T13:31:50;7.20;99.90
14049;DHT22;7099;53.922;10.728;2023-11-21T13:35:56;7.20;99.90
14049;DHT22;7099;53.922;10.728;2023-11-21T13:40:02;7.20;99.90
14049;DHT22;7099;53.922;10.728;2023-11-21T13:44:14;7.20;99.90
14049;DHT22;7099;53.922;10.728;2023-11-21T13:48:32;7.20;99.90
14049;DHT22;7099;53.922;10.728;2023-11-21T13:52:52;7.10;99.90
14049;DHT22;7099;53.922;10.728;2023-11-21T13:56:59;7.00;99.90
14049;DHT22;7099;53.922;10.728;2023-11-21T14:01:05;7.00;99.90
14049;DHT22;7099;53.922;10.728;2023-11-21T14:05:18;6.90;99.90
14049;DHT22;7099;53.922;10.728;2023-11-21T14:09:34;7.00;99.90
14049;DHT22;7099;53.922;10.728;2023-11-21T14:13:49;6.90;99.90
14049;DHT22;7099;53.922;10.728;2023-11-21T14:17:54;6.90;99.90
14049;DHT22;7099;53.922;10.728;2023-11-21T14:22:00;7.00;99.90
14049;DHT22;7099;53.922;10.728;2023-11-21T14:26:06;7.00;99.90
14049;DHT22;7099;53.922;10.728;2023-11-21T14:30:12;7.00;99.90
14049;DHT22;7099;53.922;10.728;2023-11-21T14:34:19;7.00;99.90
14049;DHT22;7099;53.922;10.728;2023-11-21T14:38:27;6.90;99.90
14049;DHT22;7099;53.922;10.728;2023-11-21T14:42:33;6.80;99.90
14049;DHT22;7099;53.922;10.728;2023-11-21T14:46:39;6.80;99.90
14049;DHT22;7099;53.922;10.728;2023-11-21T14:50:49;6.70;99.90
14049;DHT22;7099;53.922;10.728;2023-11-21T14:55:14;6.60;99.90
14049;DHT22;7099;53.922;10.728;2023-11-21T14:59:26;6.60;99.90
14049;DHT22;7099;53.922;10.728;2023-11-21T15:03:31;6.60;99.90
14049;DHT22;7099;53.922;10.728;2023-11-21T15:07:39;6.60;99.90
14049;DHT22;7099;53.922;10.728;2023-11-21T15:11:45;6.60;99.90
14049;DHT22;7099;53.922;10.728;2023-11-21T15:15:52;6.60;99.90
14049;DHT22;7099;53.922;10.728;2023-11-21T15:19:59;6.60;99.90
14049;DHT22;7099;53.922;10.728;2023-11-21T15:24:05;6.60;99.90
14049;DHT22;7099;53.922;10.728;2023-11-21T15:28:11;6.50;99.90
14049;DHT22;7099;53.922;10.728;2023-11-21T15:32:17;6.40;99.90
14049;DHT22;7099;53.922;10.728;2023-11-21T15:36:22;6.40;99.90
14049;DHT22;7099;53.922;10.728;2023-11-21T15:40:28;6.30;99.90
14049;DHT22;7099;53.922;10.728;2023-11-21T15:44:33;6.30;99.90
14049;DHT22;7099;53.922;10.728;2023-11-21T15:48:39;6.30;99.90
14049;DHT22;7099;53.922;10.728;2023-11-21T15:52:48;6.30;99.90
14049;DHT22;7099;53.922;10.728;2023-11-21T15:57:02;6.30;99.90
14049;DHT22;7099;53.922;10.728;2023-11-21T16:01:09;6.20;99.90
14049;DHT22;7099;53.922;10.728;2023-11-21T16:05:18;6.20;99.90
14049;DHT22;7099;53.922;10.728;2023-11-21T16:09:24;6.20;99.90
14049;DHT22;7099;53.922;10.728;2023-11-21T16:13:36;6.10;99.90
14049;DHT22;7099;53.922;10.728;2023-11-21T16:17:43;6.10;99.90
14049;DHT22;7099;53.922;10.728;2023-11-21T16:21:49;6.00;99.90
14049;DHT22;7099;53.922;10.728;2023-11-21T16:25:55;6.00;99.90
14049;DHT22;7099;53.922;10.728;2023-11-21T16:30:03;6.00;99.90
14049;DHT22;7099;53.922;10.728;2023-11-21T16:34:13;6.00;99.90
14049;DHT22;7099;53.922;10.728;2023-11-21T16:38:24;6.00;99.90
14049;DHT22;7099;53.922;10.728;2023-11-21T16:42:29;6.00;99.90
14049;DHT22;7099;53.922;10.728;2023-11-21T16:46:37;6.00;99.90
14049;DHT22;7099;53.922;10.728;2023-11-21T16:50:43;6.00;99.90
14049;DHT22;7099;53.922;10.728;2023-11-21T16:54:49;6.00;99.90
14049;DHT22;7099;53.922;10.728;2023-11-21T16:58:54;6.00;99.90
14049;DHT22;7099;53.922;10.728;2023-11-21T17:02:59;5.90;99.90
14049;DHT22;7099;53.922;10.728;2023-11-21T17:07:05;5.90;99.90
14049;DHT22;7099;53.922;10.728;2023-11-21T17:11:11;5.90;99.90
14049;DHT22;7099;53.922;10.728;2023-11-21T17:15:19;5.80;99.90
14049;DHT22;7099;53.922;10.728;2023-11-21T17:19:26;5.70;99.90
14049;DHT22;7099;53.922;10.728;2023-11-21T17:23:36;5.70;99.90
14049;DHT22;7099;53.922;10.728;2023-11-21T17:27:42;5.70;99.90
14049;DHT22;7099;53.922;10.728;2023-11-21T17:31:48;5.80;99.90
14049;DHT22;7099;53.922;10.728;2023-11-21T17:35:55;5.80;99.90
14049;DHT22;7099;53.922;10.728;2023-11-21T17:40:00;5.80;99.90
14049;DHT22;7099;53.922;10.728;2023-11-21T17:44:06;5.70;99.90
14049;DHT22;7099;53.922;10.728;2023-11-21T17:48:12;5.70;99.90
14049;DHT22;7099;53.922;10.728;2023-11-21T17:52:18;5.70;99.90
14049;DHT22;7099;53.922;10.728;2023-11-21T17:56:26;5.70;99.90
14049;DHT22;7099;53.922;10.728;2023-11-21T18:00:33;5.70;99.90
14049;DHT22;7099;53.922;10.728;2023-11-21T18:04:38;5.70;99.90
14049;DHT22;7099;53.922;10.728;2023-11-21T18:08:44;5.70;99.90
14049;DHT22;7099;53.922;10.728;2023-11-21T18:12:50;5.70;99.90
14049;DHT22;7099;53.922;10.728;2023-11-21T18:16:56;5.70;99.90
14049;DHT22;7099;53.922;10.728;2023-11-21T18:21:02;5.70;99.90
14049;DHT22;7099;53.922;10.728;2023-11-21T18:25:08;5.70;99.90
14049;DHT22;7099;53.922;10.728;2023-11-21T18:29:13;5.70;99.90
14049;DHT22;7099;53.922;10.728;2023-11-21T18:33:22;5.60;99.90
14049;DHT22;7099;53.922;10.728;2023-11-21T18:37:28;5.60;99.90
14049;DHT22;7099;53.922;10.728;2023-11-21T18:41:35;5.50;99.90
14049;DHT22;7099;53.922;10.728;2023-11-21T18:45:41;5.50;99.90
14049;DHT22;7099;53.922;10.728;2023-11-21T18:49:47;5.50;99.90
14049;DHT22;7099;53.922;10.728;2023-11-21T18:53:53;5.50;99.90
14049;DHT22;7099;53.922;10.728;2023-11-21T18:57:59;5.50;99.90
14049;DHT22;7099;53.922;10.728;2023-11-21T19:02:04;5.50;99.90
14049;DHT22;7099;53.922;10.728;2023-11-21T19:06:13;5.40;99.90
14049;DHT22;7099;53.922;10.728;2023-11-21T19:10:20;5.40;99.90
14049;DHT22;7099;53.922;10.728;2023-11-21T19:14:26;5.30;99.90
14049;DHT22;7099;53.922;10.728;2023-11-21T19:18:32;5.20;99.90
14049;DHT22;7099;53.922;10.728;2023-11-21T19:22:37;5.20;99.90
14049;DHT22;7099;53.922;10.728;2023-11-21T19:26:43;5.10;99.90
14049;DHT22;7099;53.922;10.728;2023-11-21T19:30:49;5.00;99.90
14049;DHT22;7099;53.922;10.728;2023-11-21T19:34:55;5.00;99.90
14049;DHT22;7099;53.922;10.728;2023-11-21T19:39:01;5.00;99.90
14049;DHT22;7099;53.922;10.728;2023-11-21T19:43:07;5.00;99.90
14049;DHT22;7099;53.922;10.728;2023-11-21T19:47:12;5.00;99.90
14049;DHT22;7099;53.922;10.728;2023-11-21T19:51:18;4.90;99.90
14049;DHT22;7099;53.922;10.728;2023-11-21T19:55:24;4.90;99.90
14049;DHT22;7099;53.922;10.728;2023-11-21T19:59:35;4.90;99.90
14049;DHT22;7099;53.922;10.728;2023-11-21T20:03:46;4.90;99.90
14049;DHT22;7099;53.922;10.728;2023-11-21T20:07:52;4.80;99.90
14049;DHT22;7099;53.922;10.728;2023-11-21T20:11:57;4.80;99.90
14049;DHT22;7099;53.922;10.728;2023-11-21T20:16:03;4.80;99.90
14049;DHT22;7099;53.922;10.728;2023-11-21T20:20:12;4.80;99.90
14049;DHT22;7099;53.922;10.728;2023-11-21T20:24:21;4.80;99.90
14049;DHT22;7099;53.922;10.728;2023-11-21T20:28:26;4.80;99.90
14049;DHT22;7099;53.922;10.728;2023-11-21T20:32:32;4.80;99.90
14049;DHT22;7099;53.922;10.728;2023-11-21T20:36:40;4.80;99.90
14049;DHT22;7099;53.922;10.728;2023-11-21T20:40:45;4.80;99.90
14049;DHT22;7099;53.922;10.728;2023-11-21T20:44:51;4.80;99.90
14049;DHT22;7099;53.922;10.728;2023-11-21T20:48:56;4.80;99.90
14049;DHT22;7099;53.922;10.728;2023-11-21T20:53:03;4.80;99.90
14049;DHT22;7099;53.922;10.728;2023-11-21T20:57:12;4.80;99.90
14049;DHT22;7099;53.922;10.728;2023-11-21T21:01:18;4.80;99.90
14049;DHT22;7099;53.922;10.728;2023-11-21T21:05:23;4.80;99.90
14049;DHT22;7099;53.922;10.728;2023-11-21T21:09:32;4.80;99.90
14049;DHT22;7099;53.922;10.728;2023-11-21T21:13:37;4.80;99.90
14049;DHT22;7099;53.922;10.728;2023-11-21T21:17:44;4.80;99.90
14049;DHT22;7099;53.922;10.728;2023-11-21T21:21:50;4.70;99.90
14049;DHT22;7099;53.922;10.728;2023-11-21T21:25:56;4.70;99.90
14049;DHT22;7099;53.922;10.728;2023-11-21T21:30:02;4.70;99.90
14049;DHT22;7099;53.922;10.728;2023-11-21T21:34:09;4.70;99.90
14049;DHT22;7099;53.922;10.728;2023-11-21T21:38:17;4.60;99.90
14049;DHT22;7099;53.922;10.728;2023-11-21T21:42:22;4.60;99.90
14049;DHT22;7099;53.922;10.728;2023-11-21T21:46:28;4.50;99.90
14049;DHT22;7099;53.922;10.728;2023-11-21T21:50:33;4.40;99.90
14049;DHT22;7099;53.922;10.728;2023-11-21T21:54:39;4.40;99.90
14049;DHT22;7099;53.922;10.728;2023-11-21T21:58:44;4.30;99.90
14049;DHT22;7099;53.922;10.728;2023-11-21T22:02:50;4.30;99.90
14049;DHT22;7099;53.922;10.728;2023-11-21T22:06:56;4.20;99.90
14049;DHT22;7099;53.922;10.728;2023-11-21T22:11:01;4.10;99.90
14049;DHT22;7099;53.922;10.728;2023-11-21T22:15:08;4.00;99.90
14049;DHT22;7099;53.922;10.728;2023-11-21T22:19:14;4.00;99.90
14049;DHT22;7099;53.922;10.728;2023-11-21T22:23:19;3.90;99.90
14049;DHT22;7099;53.922;10.728;2023-11-21T22:27:25;3.90;99.90
14049;DHT22;7099;53.922;10.728;2023-11-21T22:31:31;3.80;99.90
14049;DHT22;7099;53.922;10.728;2023-11-21T22:35:37;3.70;99.90
14049;DHT22;7099;53.922;10.728;2023-11-21T22:39:50;3.60;99.90
14049;DHT22;7099;53.922;10.728;2023-11-21T22:43:56;3.60;99.90
14049;DHT22;7099;53.922;10.728;2023-11-21T22:48:02;3.50;99.90
14049;DHT22;7099;53.922;10.728;2023-11-21T22:52:08;3.40;99.90
14049;DHT22;7099;53.922;10.728;2023-11-21T22:56:13;3.30;99.90
14049;DHT22;7099;53.922;10.728;2023-11-21T23:00:19;3.20;99.90
14049;DHT22;7099;53.922;10.728;2023-11-21T23:04:34;3.20;99.90
14049;DHT22;7099;53.922;10.728;2023-11-21T23:08:40;3.10;99.90
14049;DHT22;7099;53.922;10.728;2023-11-21T23:12:46;3.10;99.80
14049;DHT22;7099;53.922;10.728;2023-11-21T23:16:52;3.00;99.60
14049;DHT22;7099;53.922;10.728;2023-11-21T23:20:59;2.90;99.70
14049;DHT22;7099;53.922;10.728;2023-11-21T23:25:05;2.80;99.70
14049;DHT22;7099;53.922;10.728;2023-11-21T23:29:11;2.80;99.70
14049;DHT22;7099;53.922;10.728;2023-11-21T23:33:17;2.70;99.70
14049;DHT22;7099;53.922;10.728;2023-11-21T23:37:25;2.70;99.70
14049;DHT22;7099;53.922;10.728;2023-11-21T23:41:30;2.60;99.70
14049;DHT22;7099;53.922;10.728;2023-11-21T23:45:36;2.50;99.60
14049;DHT22;7099;53.922;10.728;2023-11-21T23:49:43;2.40;99.60
14049;DHT22;7099;53.922;10.728;2023-11-21T23:53:48;2.40;99.70
14049;DHT22;7099;53.922;10.728;2023-11-21T23:57:54;2.30;99.70
